Flight Track Log - Related Links

Times and Time Zones

All times are in EDT time to prevent confusion due to time zone crossing. See the SWA890 flight status page for this flight to view local times or setup timezone preferences in your user account.

Time Position Orientation Groundspeed Altitude Reporting Facility
EDT Latitude Longitude Course Direction KTS MPH feet Rate Location/Type
Mon 07:50:49 PM 27.9833 -82.5333 360° North 152 175 600  Level Tampa TRACON
Mon 07:51:55 PM 28.0500 -82.5333 360° North 193 222 2,700 2,305 Climbing Tampa TRACON
Mon 07:53:46 PM 28.1683 -82.5442 355° North 254 292 7,400 2,807 Climbing Jacksonville Center
Mon 07:54:46 PM 28.2475 -82.5508 356° North 265 305 10,700 3,500 Climbing Jacksonville Center
Mon 07:55:46 PM 28.3311 -82.5578 356° North 285 328 14,400 3,200 Climbing Jacksonville Center
Mon 07:56:46 PM 28.4186 -82.5669 355° North 297 342 17,100 2,500 Climbing Jacksonville Center
Mon 07:57:46 PM 28.5083 -82.5736 356° North 308 354 19,400 1,550 Climbing Jacksonville Center
Mon 07:58:46 PM 28.6128 -82.5850 355° North 330 380 20,200 1,400 Climbing Jacksonville Center
Mon 07:59:46 PM 28.7131 -82.5944 355° North 369 425 22,200 2,100 Climbing Jacksonville Center
Mon 08:00:46 PM 28.8300 -82.6128 352° North 404 465 24,400 2,150 Climbing Jacksonville Center
Mon 08:01:46 PM 28.9489 -82.6269 354° North 424 488 26,500 2,050 Climbing Jacksonville Center
Mon 08:02:46 PM 29.0700 -82.6431 353° North 429 494 28,500 1,800 Climbing Jacksonville Center
Mon 08:03:46 PM 29.1953 -82.6594 353° North 434 499 30,100 1,700 Climbing Jacksonville Center
Mon 08:04:46 PM 29.3164 -82.6331 11° North 434 499 31,900 2,000 Climbing Jacksonville Center
Mon 08:05:46 PM 29.4542 -82.6017 11° North 441 507 34,100 2,000 Climbing Jacksonville Center
Mon 08:06:46 PM 29.5731 -82.5750 11° North 450 518 35,900 1,500 Climbing Jacksonville Center
Mon 08:07:46 PM 29.6961 -82.5483 11° North 445 512 37,100 1,150 Climbing Jacksonville Center
Mon 08:08:46 PM 29.8131 -82.5217 11° North 440 506 38,200 950 Climbing Jacksonville Center
Mon 08:09:46 PM 29.9319 -82.4947 11° North 435 501 39,000 400 Climbing Jacksonville Center
Mon 08:10:46 PM 30.0486 -82.4725 North 435 501 39,000  Level Jacksonville Center
Mon 08:11:46 PM 30.1656 -82.4456 11° North 429 494 39,000  Level Jacksonville Center
Mon 08:12:46 PM 30.2803 -82.4186 11° North 424 488 39,000  Level Jacksonville Center
Mon 08:13:46 PM 30.3972 -82.4253 357° North 424 488 39,000  Level Jacksonville Center
Mon 08:14:46 PM 30.5017 -82.4319 357° North 419 482 39,000  Level Jacksonville Center
Mon 08:15:46 PM 30.6206 -82.4386 357° North 424 488 39,000  Level Jacksonville Center
Mon 08:16:46 PM 30.7375 -82.4503 355° North 424 488 39,000  Level Jacksonville Center
Mon 08:17:46 PM 30.8544 -82.4569 357° North 424 488 39,000  Level Jacksonville Center
Mon 08:18:46 PM 30.9758 -82.4661 356° North 424 488 39,000  Level Jacksonville Center
Mon 08:19:46 PM 31.0947 -82.4753 356° North 424 488 39,000  Level Jacksonville Center
Mon 08:20:46 PM 31.2139 -82.4869 355° North 424 488 39,000  Level Jacksonville Center
Mon 08:21:46 PM 31.3328 -82.4961 356° North 424 488 39,000  Level Jacksonville Center
Mon 08:22:46 PM 31.4622 -82.5028 357° North 424 488 39,000  Level Jacksonville Center
Mon 08:23:46 PM 31.5833 -82.5000 North 424 488 39,000  Level Jacksonville Center
Mon 08:25:15 PM 31.7472 -82.4758 North 427 491 39,000  Level Atlanta Center
Mon 08:26:15 PM 31.8658 -82.4567 North 427 491 39,000  Level Atlanta Center
Mon 08:27:15 PM 31.9844 -82.4350 North 427 491 39,000  Level Atlanta Center
Mon 08:28:15 PM 32.1053 -82.4181 North 427 491 39,000  Level Atlanta Center
Mon 08:29:15 PM 32.2261 -82.3986 North 427 491 39,000  Level Atlanta Center
Mon 08:30:15 PM 32.3408 -82.3844 North 427 491 39,000  Level Atlanta Center
Mon 08:31:15 PM 32.4617 -82.3622 North 427 491 39,000  Level Atlanta Center
Mon 08:32:15 PM 32.5803 -82.3428 North 427 491 39,000  Level Atlanta Center
Mon 08:33:15 PM 32.6989 -82.3233 North 427 491 39,000  Level Atlanta Center
Mon 08:34:15 PM 32.8197 -82.3061 North 427 491 39,000  Level Atlanta Center
Mon 08:35:15 PM 32.9406 -82.2864 North 427 491 39,000  Level Atlanta Center
Mon 08:36:15 PM 33.0592 -82.2667 North 427 491 39,000  Level Atlanta Center
Mon 08:37:15 PM 33.1781 -82.2494 North 427 491 39,000  Level Atlanta Center
Mon 08:38:15 PM 33.3008 -82.2269 North 427 491 39,000  Level Atlanta Center
Mon 08:39:15 PM 33.4217 -82.2069 North 432 497 39,000  Level Atlanta Center
Mon 08:40:15 PM 33.5422 -82.1869 North 432 497 39,000  Level Atlanta Center
Mon 08:41:15 PM 33.6778 -82.1642 North 438 504 39,000  Level Atlanta Center
Mon 08:42:15 PM 33.8006 -82.1414 North 443 510 39,000  Level Atlanta Center
Mon 08:43:15 PM 33.9211 -82.1211 North 443 510 39,000  Level Atlanta Center
Mon 08:44:15 PM 34.0439 -82.1008 North 443 510 39,000  Level Atlanta Center
Mon 08:45:15 PM 34.1669 -82.0806 North 443 510 39,000  Level Atlanta Center
Mon 08:46:15 PM 34.2897 -82.0600 North 443 510 39,000  Level Atlanta Center
Mon 08:47:15 PM 34.4103 -82.0397 North 443 510 39,000  Level Atlanta Center
Mon 08:48:15 PM 34.5353 -82.0164 North 443 510 39,000  Level Atlanta Center
Mon 08:49:15 PM 34.6600 -81.9933 North 443 510 39,000  Level Atlanta Center
Mon 08:50:15 PM 34.7681 -81.9628 13° North 449 517 39,000  Level Atlanta Center
Mon 08:51:15 PM 34.9011 -81.9292 12° North 449 517 39,000  Level Atlanta Center
Mon 08:52:15 PM 35.0256 -81.8981 12° North 444 511 39,000  Level Atlanta Center
Mon 08:53:15 PM 35.1481 -81.8644 13° North 450 518 39,000  Level Atlanta Center
Mon 08:54:15 PM 35.2728 -81.8306 13° North 450 518 39,000  Level Atlanta Center
Mon 08:55:15 PM 35.3953 -81.7992 12° North 450 518 39,000  Level Atlanta Center
Mon 08:56:15 PM 35.5136 -81.7681 12° North 445 512 39,000  Level Atlanta Center
Mon 08:57:15 PM 35.6383 -81.7339 13° North 445 512 39,000  Level Atlanta Center
Mon 08:58:15 PM 35.7586 -81.6997 13° North 445 512 39,000  Level Atlanta Center
Mon 08:59:15 PM 35.8808 -81.6656 13° North 445 512 39,000  Level Atlanta Center
Mon 09:00:15 PM 36.0033 -81.6336 12° North 445 512 39,000  Level Atlanta Center
Mon 09:01:15 PM 36.1256 -81.5942 15° North 450 518 39,000  Level Atlanta Center
Mon 09:02:15 PM 36.2461 -81.5647 11° North 445 512 39,000  Level Atlanta Center
Mon 09:03:15 PM 36.3706 -81.5272 14° North 445 512 39,000  Level Atlanta Center
Mon 09:04:15 PM 36.4947 -81.4897 14° North 450 518 39,000  Level Atlanta Center
Mon 09:05:15 PM 36.6192 -81.4575 12° North 450 518 39,000  Level Atlanta Center
Mon 09:07:15 PM 36.8600 -81.3889 13° North 452 520 39,000  Level Indianapolis Center
Mon 09:08:17 PM 36.9822 -81.3544 13° North 452 520 39,000  Level Indianapolis Center
Mon 09:09:18 PM 37.1039 -81.3208 12° North 451 519 39,000  Level Indianapolis Center
Mon 09:10:20 PM 37.2258 -81.2867 13° North 451 519 39,000  Level Indianapolis Center
Mon 09:11:21 PM 37.3481 -81.2519 13° North 451 519 39,000  Level Indianapolis Center
Mon 09:12:23 PM 37.4694 -81.2172 13° North 451 519 39,000  Level Indianapolis Center
Mon 09:13:24 PM 37.5914 -81.1819 13° North 451 519 39,000  Level Indianapolis Center
Mon 09:14:26 PM 37.7386 -81.1397 13° North 451 519 39,000  Level Indianapolis Center
Mon 09:15:27 PM 37.8622 -81.1039 13° North 452 520 39,000  Level Indianapolis Center
Mon 09:16:29 PM 37.9844 -81.0661 14° North 454 522 39,000  Level Indianapolis Center
Mon 09:17:30 PM 38.1053 -81.0194 17° North 454 522 39,000  Level Indianapolis Center
Mon 09:18:32 PM 38.2272 -80.9742 16° North 455 524 39,000  Level Indianapolis Center
Mon 09:19:33 PM 38.3489 -80.9283 16° North 455 524 39,000  Level Indianapolis Center
Mon 09:20:35 PM 38.4694 -80.8825 17° North 455 524 39,000  Level Indianapolis Center
Mon 09:21:36 PM 38.6131 -80.8281 16° North 455 524 39,000  Level Indianapolis Center
Mon 09:22:38 PM 38.7331 -80.7833 16° North 454 522 39,000  Level Indianapolis Center
Mon 09:23:40 PM 38.8508 -80.7383 17° North 449 517 39,000  Level Indianapolis Center
Mon 09:24:41 PM 38.9697 -80.6933 16° North 448 516 39,000  Level Indianapolis Center
Mon 09:25:43 PM 39.0864 -80.6478 17° North 445 512 39,000  Level Indianapolis Center
Mon 09:26:44 PM 39.2044 -80.6031 16° North 445 512 39,000  Level Indianapolis Center
Mon 09:27:46 PM 39.3222 -80.5581 16° North 444 511 39,000  Level Indianapolis Center
Mon 09:28:48 PM 39.4622 -80.5042 17° North 441 507 39,000 -195 Level Indianapolis Center
Mon 09:29:49 PM 39.5814 -80.4586 16° North 442 509 38,600 -634 Descending Indianapolis Center
Mon 09:30:51 PM 39.6997 -80.4117 17° North 443 510 37,700 -927 Descending Indianapolis Center
Mon 09:31:52 PM 39.8172 -80.3669 16° North 443 510 36,700 -927 Descending Indianapolis Center
Mon 09:32:54 PM 39.9369 -80.3186 17° North 446 513 35,800 -829 Descending Indianapolis Center
Mon 09:33:55 PM 40.0608 -80.2703 17° North 458 527 35,000 -390 Descending Indianapolis Center
Mon 09:34:57 PM 40.1811 -80.2222 17° North 458 527 35,000  Level Indianapolis Center
Mon 09:35:58 PM 40.3147 -80.1700 17° North 457 526 35,000 -316 Level Indianapolis Center
Mon 09:37:10 PM 40.4533 -80.1156 17° North 456 525 34,300 -761 Descending Cleveland Center
Mon 09:38:12 PM 40.5775 -80.0647 17° North 462 532 33,300 -927 Descending Cleveland Center
Mon 09:39:13 PM 40.7003 -80.0172 16° North 464 534 32,400 -927 Descending Cleveland Center
Mon 09:40:15 PM 40.8231 -79.9672 17° North 458 527 31,400 -1,073 Descending Cleveland Center
Mon 09:41:16 PM 40.9686 -79.9081 17° North 458 527 30,200 -1,073 Descending Cleveland Center
Mon 09:42:18 PM 41.0906 -79.8578 17° North 458 527 29,200 -927 Descending Cleveland Center
Mon 09:43:19 PM 41.2097 -79.8092 17° North 459 528 28,300 -927 Descending Cleveland Center
Mon 09:44:21 PM 41.3331 -79.7578 17° North 460 529 27,300 -927 Descending Cleveland Center
Mon 09:45:22 PM 41.4547 -79.7081 17° North 461 531 26,400 -927 Descending Cleveland Center
Mon 09:46:24 PM 41.5769 -79.6567 17° North 461 531 25,400 -1,220 Descending Cleveland Center
Mon 09:47:25 PM 41.7156 -79.5994 17° North 434 499 23,900 -1,268 Descending Cleveland Center
Mon 09:48:27 PM 41.8200 -79.5567 17° North 395 455 22,800 -1,073 Descending Cleveland Center
Mon 09:49:28 PM 41.9147 -79.5167 17° North 365 420 21,700 -1,268 Descending Cleveland Center
Mon 09:50:30 PM 42.0108 -79.4769 17° North 363 418 20,200 -1,610 Descending Cleveland Center
Mon 09:51:31 PM 42.1033 -79.4386 17° North 353 406 18,400 -1,659 Descending Cleveland Center
Mon 09:52:33 PM 42.1928 -79.3994 18° North 341 392 16,800 -1,659 Descending Cleveland Center
Mon 09:53:34 PM 42.2814 -79.3625 17° North 338 389 15,000 -1,869 Descending Cleveland Center
Mon 09:54:35 PM 42.3850 -79.3203 17° North 328 377 13,000 -1,805 Descending Cleveland Center
Mon 09:55:37 PM 42.4714 -79.2872 16° North 325 374 11,300 -976 Descending Cleveland Center
Mon 09:56:38 PM 42.5547 -79.2533 17° North 315 362 11,000 -146 Descending Cleveland Center
Mon 09:57:40 PM 42.6381 -79.2214 16° North 311 358 11,000 -634 Level Cleveland Center
Mon 09:58:41 PM 42.7236 -79.1914 14° North 312 359 9,700 -1,268 Descending Cleveland Center
Mon 09:59:43 PM 42.7939 -79.1247 35° Northeast 302 348 8,400 -1,268 Descending Cleveland Center
Mon 10:00:44 PM 42.8550 -79.0506 42° Northeast 287 330 7,100 -1,171 Descending Cleveland Center
Mon 10:01:46 PM 42.9119 -78.9717 45° Northeast 283 326 6,000 -1,073 Descending Cleveland Center
Mon 10:02:47 PM 42.9569 -78.8928 52° Northeast 259 298 4,900 -927 Descending Cleveland Center
Mon 10:03:49 PM 42.9931 -78.8289 52° Northeast 227 261 4,100 -634 Descending Cleveland Center
Mon 10:04:50 PM 43.0328 -78.7714 47° Northeast 202 232 3,600 -585 Descending Cleveland Center
Mon 10:05:52 PM 43.0653 -78.7164 51° Northeast 191 220 2,900 -683 Descending Cleveland Center
Mon 10:06:53 PM 43.0233 -78.6747 144° Southeast 181 208 2,200 -439 Descending Cleveland Center
Mon 10:07:55 PM 42.9869 -78.6667 171° South 167 192 2,000 -244 Descending Cleveland Center
Mon 10:08:56 PM 42.9658 -78.7017 231° Southwest 144 166 1,700 -295 Descending Cleveland Center

Login

Don't have an account? Register now (free) for customized features, flight alerts, and more!